createdAt,value
2023-03-05T00:00:37.652Z,952.97
2023-03-05T00:01:37.648Z,953.01
2023-03-05T00:02:37.637Z,952.91
2023-03-05T00:03:37.632Z,952.9
2023-03-05T00:04:37.586Z,952.93
2023-03-05T00:05:37.571Z,952.95
2023-03-05T00:06:37.531Z,952.99
2023-03-05T00:07:37.506Z,952.98
2023-03-05T00:08:37.490Z,952.92
2023-03-05T00:09:37.468Z,952.97
2023-03-05T00:10:37.459Z,952.94
2023-03-05T00:11:37.425Z,952.96
2023-03-05T00:12:37.409Z,952.88
2023-03-05T00:13:37.400Z,952.93
2023-03-05T00:14:37.368Z,952.95
2023-03-05T00:15:37.358Z,952.92
2023-03-05T00:16:37.327Z,952.9
2023-03-05T00:17:37.302Z,952.87
2023-03-05T00:18:37.284Z,952.89
2023-03-05T00:19:37.269Z,952.87
2023-03-05T00:20:37.250Z,952.85
2023-03-05T00:21:37.254Z,952.85
2023-03-05T00:22:37.205Z,952.85
2023-03-05T00:23:37.181Z,952.87
2023-03-05T00:24:37.163Z,952.93
2023-03-05T00:25:37.142Z,952.93
2023-03-05T00:26:37.143Z,952.9
2023-03-05T00:27:37.107Z,952.9
2023-03-05T00:28:37.085Z,952.92
2023-03-05T00:29:37.093Z,952.91
2023-03-05T00:30:37.050Z,952.96
2023-03-05T00:31:37.114Z,952.89
2023-03-05T00:32:37.054Z,952.86
2023-03-05T00:33:36.997Z,952.92
2023-03-05T00:34:36.968Z,952.89
2023-03-05T00:35:36.978Z,952.84
2023-03-05T00:36:36.930Z,952.85
2023-03-05T00:37:36.932Z,952.84
2023-03-05T00:38:36.895Z,952.77
2023-03-05T00:39:36.868Z,952.78
2023-03-05T00:40:36.896Z,952.77
2023-03-05T00:41:36.828Z,952.79
2023-03-05T00:42:36.812Z,952.83
2023-03-05T00:43:36.788Z,952.74
2023-03-05T00:44:36.772Z,952.74
2023-03-05T00:45:36.748Z,952.7
2023-03-05T00:46:36.766Z,952.72
2023-03-05T00:47:36.712Z,952.7
2023-03-05T00:48:36.697Z,952.71
2023-03-05T00:49:36.672Z,952.74
2023-03-05T00:50:36.650Z,952.75
2023-03-05T00:51:36.636Z,952.71
2023-03-05T00:52:36.616Z,952.7
2023-03-05T00:53:36.615Z,952.73
2023-03-05T00:54:36.571Z,952.7
2023-03-05T00:55:36.551Z,952.7
2023-03-05T00:56:36.531Z,952.71
2023-03-05T00:57:36.506Z,952.66
2023-03-05T00:58:36.496Z,952.63
2023-03-05T00:59:36.470Z,952.6
2023-03-05T01:00:36.451Z,952.59
2023-03-05T01:01:36.456Z,952.59
2023-03-05T01:02:36.414Z,952.56
2023-03-05T01:03:36.383Z,952.61
2023-03-05T01:04:36.362Z,952.6
2023-03-05T01:05:36.454Z,952.58
2023-03-05T01:06:36.345Z,952.57
2023-03-05T01:07:36.297Z,952.59
2023-03-05T01:08:36.279Z,952.55
2023-03-05T01:09:36.280Z,952.53
2023-03-05T01:10:36.233Z,952.52
2023-03-05T01:11:36.219Z,952.54
2023-03-05T01:12:36.197Z,952.52
2023-03-05T01:13:36.173Z,952.47
2023-03-05T01:14:36.154Z,952.44
2023-03-05T01:15:36.134Z,952.42
2023-03-05T01:16:36.111Z,952.45
2023-03-05T01:17:36.088Z,952.42
2023-03-05T01:18:36.068Z,952.4
2023-03-05T01:19:36.052Z,952.37
2023-03-05T01:20:36.029Z,952.41
2023-03-05T01:21:36.011Z,952.36
2023-03-05T01:22:35.988Z,952.41
2023-03-05T01:23:35.966Z,952.35
2023-03-05T01:24:35.949Z,952.38
2023-03-05T01:25:35.950Z,952.33
2023-03-05T01:26:35.905Z,952.36
2023-03-05T01:27:35.893Z,952.37
2023-03-05T01:28:35.874Z,952.35
2023-03-05T01:29:35.843Z,952.26
2023-03-05T01:30:35.823Z,952.26
2023-03-05T01:31:35.836Z,952.23
2023-03-05T01:32:35.968Z,952.23
2023-03-05T01:33:35.762Z,952.28
2023-03-05T01:34:35.741Z,952.23
2023-03-05T01:35:35.787Z,952.27
2023-03-05T01:36:36.358Z,952.21
2023-03-05T01:37:36.334Z,952.23
2023-03-05T01:38:36.320Z,952.2
2023-03-05T01:39:36.298Z,952.14
2023-03-05T01:40:36.280Z,952.15
2023-03-05T01:41:36.298Z,952.16
2023-03-05T01:42:36.234Z,952.14
2023-03-05T01:43:36.216Z,952.13
2023-03-05T01:44:36.199Z,952.13
2023-03-05T01:45:36.199Z,952.1
2023-03-05T01:46:36.185Z,952.11
2023-03-05T01:47:36.137Z,952.13
2023-03-05T01:48:36.113Z,952.12
2023-03-05T01:49:36.096Z,952.14
2023-03-05T01:50:36.077Z,952.07
2023-03-05T01:51:36.056Z,952.06
2023-03-05T01:52:36.037Z,952.04
2023-03-05T01:53:36.016Z,952.09
2023-03-05T01:54:35.991Z,952.04
2023-03-05T01:55:35.973Z,952.09
2023-03-05T01:56:35.967Z,952.05
2023-03-05T01:57:35.964Z,952.01
2023-03-05T01:58:35.912Z,952.03
2023-03-05T01:59:35.898Z,952.03
2023-03-05T02:00:35.873Z,952.02
2023-03-05T02:01:35.864Z,952
2023-03-05T02:02:35.831Z,951.93
2023-03-05T02:03:35.821Z,951.98
2023-03-05T02:04:35.796Z,951.94
2023-03-05T02:05:35.770Z,951.95
2023-03-05T02:06:35.754Z,951.93
2023-03-05T02:07:35.730Z,951.96
2023-03-05T02:08:35.714Z,951.95
2023-03-05T02:09:35.689Z,951.9
2023-03-05T02:10:35.673Z,951.91
2023-03-05T02:11:35.651Z,951.9
2023-03-05T02:12:35.634Z,951.95
2023-03-05T02:13:35.683Z,951.88
2023-03-05T02:14:35.620Z,951.9
2023-03-05T02:15:35.573Z,951.95
2023-03-05T02:16:35.643Z,951.93
2023-03-05T02:17:35.533Z,951.9
2023-03-05T02:18:35.514Z,951.9
2023-03-05T02:19:35.494Z,951.96
2023-03-05T02:20:35.474Z,951.9
2023-03-05T02:21:35.457Z,951.9
2023-03-05T02:22:35.438Z,951.92
2023-03-05T02:23:35.414Z,951.89
2023-03-05T02:24:35.403Z,951.92
2023-03-05T02:25:35.374Z,951.83
2023-03-05T02:26:35.356Z,951.86
2023-03-05T02:27:35.362Z,951.81
2023-03-05T02:28:35.314Z,951.85
2023-03-05T02:29:35.317Z,951.82
2023-03-05T02:30:35.272Z,951.78
2023-03-05T02:31:35.327Z,951.82
2023-03-05T02:32:35.310Z,951.87
2023-03-05T02:33:35.225Z,951.88
2023-03-05T02:34:35.195Z,951.83
2023-03-05T02:35:35.639Z,951.83
2023-03-05T02:36:35.594Z,951.85
2023-03-05T02:37:35.568Z,951.84
2023-03-05T02:38:35.551Z,951.71
2023-03-05T02:39:35.526Z,951.79
2023-03-05T02:40:35.534Z,951.8
2023-03-05T02:41:35.488Z,951.79
2023-03-05T02:42:35.480Z,951.79
2023-03-05T02:43:35.454Z,951.8
2023-03-05T02:44:35.435Z,951.82
2023-03-05T02:45:35.445Z,951.82
2023-03-05T02:46:35.387Z,951.77
2023-03-05T02:47:35.890Z,951.78
2023-03-05T02:48:35.862Z,951.8
2023-03-05T02:49:35.850Z,951.77
2023-03-05T02:50:35.824Z,951.72
2023-03-05T02:51:35.801Z,951.73
2023-03-05T02:52:35.778Z,951.7
2023-03-05T02:53:35.763Z,951.66
2023-03-05T02:54:35.739Z,951.7
2023-03-05T02:55:35.718Z,951.7
2023-03-05T02:56:35.697Z,951.72
2023-03-05T02:57:35.682Z,951.7
2023-03-05T02:58:35.664Z,951.67
2023-03-05T02:59:35.640Z,951.64
2023-03-05T03:00:35.622Z,951.67
2023-03-05T03:01:35.652Z,951.73
2023-03-05T03:02:35.594Z,951.71
2023-03-05T03:03:35.653Z,951.68
2023-03-05T03:04:35.537Z,951.7
2023-03-05T03:05:35.518Z,951.71
2023-03-05T03:06:35.501Z,951.66
2023-03-05T03:07:35.480Z,951.67
2023-03-05T03:08:35.462Z,951.7
2023-03-05T03:09:35.443Z,951.65
2023-03-05T03:10:35.416Z,951.73
2023-03-05T03:11:35.410Z,951.71
2023-03-05T03:12:35.374Z,951.68
2023-03-05T03:13:35.363Z,951.7
2023-03-05T03:14:35.347Z,951.71
2023-03-05T03:15:35.331Z,951.67
2023-03-05T03:16:35.447Z,951.68
2023-03-05T03:17:35.300Z,951.72
2023-03-05T03:18:35.257Z,951.67
2023-03-05T03:19:35.233Z,951.66
2023-03-05T03:20:35.263Z,951.69
2023-03-05T03:21:35.196Z,951.62
2023-03-05T03:22:35.188Z,951.59
2023-03-05T03:23:35.152Z,951.59
2023-03-05T03:24:35.130Z,951.6
2023-03-05T03:25:35.113Z,951.62
2023-03-05T03:26:35.092Z,951.57
2023-03-05T03:27:35.075Z,951.64
2023-03-05T03:28:35.050Z,951.62
2023-03-05T03:29:35.031Z,951.58
2023-03-05T03:30:35.019Z,951.58
2023-03-05T03:31:35.007Z,951.59
2023-03-05T03:32:35.015Z,951.55
2023-03-05T03:49:34.234Z,951.52
2023-03-05T03:50:34.186Z,951.48
2023-03-05T03:51:34.163Z,951.49
2023-03-05T03:52:34.144Z,951.47
2023-03-05T03:53:34.124Z,951.49
2023-03-05T03:54:34.112Z,951.45
2023-03-05T03:55:34.075Z,951.47
2023-03-05T03:56:34.064Z,951.44
2023-03-05T03:57:34.032Z,951.42
2023-03-05T03:58:34.015Z,951.39
2023-03-05T03:59:33.990Z,951.45
2023-03-05T04:00:33.973Z,951.44
2023-03-05T04:01:33.949Z,951.39
2023-03-05T04:02:33.977Z,951.34
2023-03-05T04:03:33.916Z,951.36
2023-03-05T04:04:33.942Z,951.34
2023-03-05T04:05:33.902Z,951.38
2023-03-05T04:06:33.851Z,951.34
2023-03-05T04:07:33.826Z,951.32
2023-03-05T04:08:33.804Z,951.32
2023-03-05T04:09:33.786Z,951.29
2023-03-05T04:10:33.768Z,951.3
2023-03-05T04:11:33.742Z,951.26
2023-03-05T04:12:34.651Z,951.33
2023-03-05T04:13:34.633Z,951.27
2023-03-05T04:14:34.611Z,951.27
2023-03-05T04:15:34.590Z,951.31
2023-03-05T04:16:34.570Z,951.26
2023-03-05T04:17:34.547Z,951.26
2023-03-05T04:18:34.528Z,951.27
2023-03-05T04:19:34.503Z,951.26
2023-03-05T04:20:34.484Z,951.22
2023-03-05T04:21:34.497Z,951.21
2023-03-05T04:22:34.448Z,951.21
2023-03-05T04:23:34.422Z,951.23
2023-03-05T04:24:34.405Z,951.25
2023-03-05T04:25:34.383Z,951.25
2023-03-05T04:26:34.361Z,951.23
2023-03-05T04:27:34.338Z,951.23
2023-03-05T04:28:34.324Z,951.2
2023-03-05T04:29:34.296Z,951.18
2023-03-05T04:30:34.280Z,951.14
2023-03-05T04:31:34.295Z,951.14
2023-03-05T04:32:34.293Z,951.14
2023-03-05T04:33:34.222Z,951.11
2023-03-05T04:34:34.197Z,951.18
2023-03-05T04:35:34.227Z,951.11
2023-03-05T04:36:34.156Z,951.1
2023-03-05T04:37:34.154Z,951.09
2023-03-05T04:38:34.114Z,951.11
2023-03-05T04:39:34.091Z,951.09
2023-03-05T04:40:34.069Z,951.14
2023-03-05T04:41:34.049Z,951.19
2023-03-05T04:42:34.028Z,951.14
2023-03-05T04:43:34.011Z,951.16
2023-03-05T04:44:33.984Z,951.13
2023-03-05T04:45:33.968Z,951.16
2023-03-05T04:46:33.969Z,951.11
2023-03-05T04:47:33.926Z,951.09
2023-03-05T04:48:33.905Z,951.13
2023-03-05T04:49:33.885Z,951.08
2023-03-05T04:50:33.868Z,951.07
2023-03-05T04:51:33.847Z,951.05
2023-03-05T04:52:33.823Z,951.07
2023-03-05T04:53:33.829Z,951.07
2023-03-05T04:54:33.786Z,951.05
2023-03-05T04:55:33.761Z,951.07
2023-03-05T04:56:33.740Z,951.06
2023-03-05T04:57:33.723Z,951.06
2023-03-05T04:58:33.710Z,951.07
2023-03-05T04:59:33.691Z,951.04
2023-03-05T05:00:33.667Z,951.07
2023-03-05T05:01:33.678Z,951.02
2023-03-05T05:02:33.648Z,951.03
2023-03-05T05:03:33.619Z,951.04
2023-03-05T05:04:33.580Z,951.01
2023-03-05T05:05:33.563Z,951.03
2023-03-05T05:06:33.538Z,951.01
2023-03-05T05:07:33.522Z,950.97
2023-03-05T05:08:33.499Z,950.93
2023-03-05T05:09:33.507Z,950.96
2023-03-05T05:10:33.456Z,951.05
2023-03-05T05:11:33.440Z,951.03
2023-03-05T05:12:33.416Z,950.95
2023-03-05T05:13:33.397Z,951.02
2023-03-05T05:14:33.380Z,950.96
2023-03-05T05:15:33.363Z,950.94
2023-03-05T05:16:33.398Z,950.98
2023-03-05T05:17:33.317Z,951.01
2023-03-05T05:18:33.296Z,950.97
2023-03-05T05:19:33.353Z,951.01
2023-03-05T05:20:33.262Z,950.99
2023-03-05T05:21:33.235Z,951.01
2023-03-05T05:22:33.225Z,950.99
2023-03-05T05:23:33.196Z,950.96
2023-03-05T05:24:33.171Z,951.02
2023-03-05T05:25:33.211Z,951.02
2023-03-05T05:26:33.134Z,951
2023-03-05T05:27:33.115Z,950.96
2023-03-05T05:28:33.092Z,950.92
2023-03-05T05:29:33.074Z,951.01
2023-03-05T05:30:33.054Z,950.97
2023-03-05T05:31:33.068Z,950.94
2023-03-05T05:32:33.086Z,950.95
2023-03-05T05:33:32.991Z,950.97
2023-03-05T05:34:32.972Z,950.98
2023-03-05T05:35:32.999Z,950.96
2023-03-05T05:36:32.932Z,950.96
2023-03-05T05:37:32.917Z,950.96
2023-03-05T05:38:32.899Z,950.96
2023-03-05T05:39:32.873Z,950.97
2023-03-05T05:40:32.869Z,951
2023-03-05T05:41:32.857Z,950.99
2023-03-05T05:42:32.816Z,950.98
2023-03-05T05:43:32.811Z,950.97
2023-03-05T05:44:32.810Z,950.96
2023-03-05T05:45:32.842Z,951
2023-03-05T05:46:32.786Z,950.99
2023-03-05T05:47:32.726Z,950.99
2023-03-05T05:48:32.693Z,951.01
2023-03-05T05:49:32.674Z,951.01
2023-03-05T05:50:32.656Z,951
2023-03-05T05:51:32.635Z,951.03
2023-03-05T05:52:32.616Z,951
2023-03-05T05:53:32.592Z,951.04
2023-03-05T05:54:32.573Z,951.02
2023-03-05T05:55:32.551Z,951.03
2023-03-05T05:56:32.542Z,951.03
2023-03-05T05:57:32.532Z,951.07
2023-03-05T05:58:32.492Z,950.99
2023-03-05T05:59:32.470Z,951.06
2023-03-05T06:00:32.450Z,951.06
2023-03-05T06:01:32.463Z,951.01
2023-03-05T06:02:32.411Z,951.01
2023-03-05T06:03:32.388Z,950.99
2023-03-05T06:04:32.371Z,950.93
2023-03-05T06:05:32.349Z,950.97
2023-03-05T06:06:32.327Z,950.96
2023-03-05T06:07:32.308Z,950.95
2023-03-05T06:08:32.287Z,950.93
2023-03-05T06:09:32.266Z,950.91
2023-03-05T06:10:32.249Z,950.89
2023-03-05T06:11:32.304Z,950.94
2023-03-05T06:12:32.215Z,950.96
2023-03-05T06:13:32.209Z,950.95
2023-03-05T06:14:32.166Z,950.89
2023-03-05T06:15:32.146Z,950.96
2023-03-05T06:16:32.144Z,950.92
2023-03-05T06:17:32.101Z,950.89
2023-03-05T06:18:32.086Z,950.88
2023-03-05T06:19:32.064Z,950.93
2023-03-05T06:20:32.048Z,950.93
2023-03-05T06:21:32.044Z,950.95
2023-03-05T06:22:32.010Z,950.96
2023-03-05T06:23:31.985Z,950.96
2023-03-05T06:24:31.970Z,951
2023-03-05T06:25:31.943Z,951.01
2023-03-05T06:26:31.925Z,951.01
2023-03-05T06:27:31.904Z,950.99
2023-03-05T06:28:31.884Z,950.95
2023-03-05T06:29:31.887Z,951
2023-03-05T06:30:31.901Z,951.03
2023-03-05T06:31:31.826Z,951.04
2023-03-05T06:32:31.848Z,951.04
2023-03-05T06:33:31.796Z,951.04
2023-03-05T06:34:31.762Z,951.1
2023-03-05T06:35:31.787Z,951.09
2023-03-05T06:36:31.721Z,951.08
2023-03-05T06:37:31.703Z,951.08
2023-03-05T06:38:31.677Z,951.09
2023-03-05T06:39:31.733Z,951.06
2023-03-05T06:40:31.638Z,951.02
2023-03-05T06:41:31.619Z,951.04
2023-03-05T06:42:31.599Z,951.04
2023-03-05T06:43:31.578Z,951.04
2023-03-05T06:44:31.558Z,950.99
2023-03-05T06:45:31.570Z,950.99
2023-03-05T06:46:31.520Z,951.01
2023-03-05T06:47:31.496Z,951.01
2023-03-05T06:48:31.476Z,951.01
2023-03-05T06:49:31.457Z,951.03
2023-03-05T06:50:31.436Z,951.02
2023-03-05T06:51:31.567Z,951.09
2023-03-05T06:52:31.405Z,951.05
2023-03-05T06:53:31.389Z,951.04
2023-03-05T06:54:31.357Z,951.04
2023-03-05T06:55:31.335Z,951.01
2023-03-05T06:56:31.312Z,950.98
2023-03-05T06:57:31.297Z,951.03
2023-03-05T06:58:31.274Z,950.98
2023-03-05T06:59:31.254Z,950.99
2023-03-05T07:00:31.289Z,950.96
2023-03-05T07:01:31.324Z,951.03
2023-03-05T07:02:31.219Z,951.01
2023-03-05T07:03:31.176Z,951.03
2023-03-05T07:04:31.152Z,950.99
2023-03-05T07:05:32.601Z,951
2023-03-05T07:06:31.112Z,950.95
2023-03-05T07:07:31.099Z,950.97
2023-03-05T07:08:31.074Z,950.97
2023-03-05T07:09:31.052Z,950.98
2023-03-05T07:10:31.033Z,950.95
2023-03-05T07:11:31.014Z,950.97
2023-03-05T07:12:30.993Z,950.93
2023-03-05T07:13:30.972Z,950.95
2023-03-05T07:14:30.950Z,950.96
2023-03-05T07:15:30.963Z,950.95
2023-03-05T07:16:30.945Z,950.95
2023-03-05T07:17:30.913Z,950.96
2023-03-05T07:18:30.870Z,950.98
2023-03-05T07:19:30.852Z,950.93
2023-03-05T07:20:30.835Z,950.91
2023-03-05T07:21:30.810Z,950.91
2023-03-05T07:22:30.791Z,950.9
2023-03-05T07:23:30.778Z,950.99
2023-03-05T07:24:30.774Z,950.93
2023-03-05T07:25:30.731Z,950.9
2023-03-05T07:26:30.712Z,950.91
2023-03-05T07:27:30.691Z,950.88
2023-03-05T07:28:30.675Z,950.81
2023-03-05T07:29:30.653Z,950.85
2023-03-05T07:30:30.634Z,950.86
2023-03-05T07:31:30.620Z,950.87
2023-03-05T07:32:30.631Z,950.84
2023-03-05T07:33:30.599Z,950.88
2023-03-05T07:34:30.554Z,950.84
2023-03-05T07:35:30.584Z,950.86
2023-03-05T07:36:30.525Z,950.83
2023-03-05T07:37:30.496Z,950.81
2023-03-05T07:38:30.481Z,950.8
2023-03-05T07:39:30.457Z,950.8
2023-03-05T07:40:30.438Z,950.77
2023-03-05T07:41:30.420Z,950.76
2023-03-05T07:42:30.492Z,950.78
2023-03-05T07:43:30.384Z,950.76
2023-03-05T07:44:30.361Z,950.78
2023-03-05T07:45:30.341Z,950.74
2023-03-05T07:46:30.383Z,950.78
2023-03-05T07:47:30.300Z,950.76
2023-03-05T07:48:30.285Z,950.75
2023-03-05T07:49:30.288Z,950.7
2023-03-05T07:50:30.245Z,950.71
2023-03-05T07:51:30.233Z,950.7
2023-03-05T07:52:30.209Z,950.69
2023-03-05T07:53:30.188Z,950.77
2023-03-05T07:54:30.175Z,950.73
2023-03-05T07:55:30.147Z,950.72
2023-03-05T07:56:30.132Z,950.71
2023-03-05T07:57:30.112Z,950.69
2023-03-05T07:58:30.093Z,950.71
2023-03-05T07:59:30.074Z,950.71
2023-03-05T08:00:30.063Z,950.69
2023-03-05T08:01:30.043Z,950.71
2023-03-05T08:02:30.045Z,950.68
2023-03-05T08:03:30.000Z,950.67
2023-03-05T08:04:30.011Z,950.69
2023-03-05T08:05:29.986Z,950.64
2023-03-05T08:06:29.937Z,950.65
2023-03-05T08:07:29.921Z,950.63
2023-03-05T08:08:29.909Z,950.59
2023-03-05T08:09:29.886Z,950.59
2023-03-05T08:10:29.863Z,950.57
2023-03-05T08:11:29.869Z,950.57
2023-03-05T08:12:29.821Z,950.59
2023-03-05T08:13:29.805Z,950.51
2023-03-05T08:14:29.804Z,950.53
2023-03-05T08:15:29.767Z,950.54
2023-03-05T08:16:29.747Z,950.5
2023-03-05T08:17:29.729Z,950.49
2023-03-05T08:18:29.711Z,950.45
2023-03-05T08:19:29.700Z,950.41
2023-03-05T08:20:29.678Z,950.44
2023-03-05T08:21:29.681Z,950.41
2023-03-05T08:22:29.637Z,950.41
2023-03-05T08:23:29.640Z,950.4
2023-03-05T08:24:29.853Z,950.46
2023-03-05T08:25:29.734Z,950.45
2023-03-05T08:26:29.713Z,950.41
2023-03-05T08:27:29.698Z,950.47
2023-03-05T08:28:29.677Z,950.43
2023-03-05T08:29:29.661Z,950.41
2023-03-05T08:30:29.639Z,950.4
2023-03-05T08:31:29.687Z,950.45
2023-03-05T08:32:29.683Z,950.4
2023-03-05T08:33:31.309Z,950.42
2023-03-05T08:34:29.563Z,950.42
2023-03-05T08:35:29.572Z,950.46
2023-03-05T08:36:29.524Z,950.42
2023-03-05T08:37:29.537Z,950.47
2023-03-05T08:38:29.491Z,950.46
2023-03-05T08:39:29.469Z,950.45
2023-03-05T08:40:29.450Z,950.47
2023-03-05T08:41:29.444Z,950.42
2023-03-05T08:42:29.414Z,950.42
2023-03-05T08:43:29.404Z,950.44
2023-03-05T08:44:29.378Z,950.4
2023-03-05T08:45:29.357Z,950.45
2023-03-05T08:46:29.388Z,950.39
2023-03-05T08:47:29.322Z,950.42
2023-03-05T08:48:29.301Z,950.39
2023-03-05T08:49:29.283Z,950.4
2023-03-05T08:50:29.262Z,950.38
2023-03-05T08:51:29.253Z,950.35
2023-03-05T08:52:29.227Z,950.35
2023-03-05T08:53:29.236Z,950.34
2023-03-05T08:54:29.193Z,950.36
2023-03-05T08:55:29.170Z,950.34
2023-03-05T08:56:29.152Z,950.38
2023-03-05T08:57:29.131Z,950.37
2023-03-05T08:58:29.116Z,950.33
2023-03-05T08:59:29.112Z,950.39
2023-03-05T09:00:29.090Z,950.37
2023-03-05T09:01:29.092Z,950.34
2023-03-05T09:02:29.091Z,950.37
2023-03-05T09:03:29.019Z,950.4
2023-03-05T09:04:29.000Z,950.42
2023-03-05T09:05:28.978Z,950.41
2023-03-05T09:06:28.960Z,950.44
2023-03-05T09:07:28.943Z,950.4
2023-03-05T09:08:28.946Z,950.47
2023-03-05T09:09:28.926Z,950.41
2023-03-05T09:10:28.887Z,950.39
2023-03-05T09:11:28.866Z,950.39
2023-03-05T09:12:28.847Z,950.39
2023-03-05T09:13:28.828Z,950.41
2023-03-05T09:14:28.806Z,950.32
2023-03-05T09:15:28.790Z,950.35
2023-03-05T09:16:28.792Z,950.32
2023-03-05T09:17:28.756Z,950.29
2023-03-05T09:18:28.735Z,950.24
2023-03-05T09:19:28.710Z,950.23
2023-03-05T09:20:28.690Z,950.23
2023-03-05T09:21:28.670Z,950.24
2023-03-05T09:22:28.653Z,950.26
2023-03-05T09:23:28.636Z,950.26
2023-03-05T09:24:28.613Z,950.17
2023-03-05T09:25:28.628Z,950.19
2023-03-05T09:26:28.585Z,950.18
2023-03-05T09:27:28.552Z,950.16
2023-03-05T09:28:28.537Z,950.14
2023-03-05T09:29:28.513Z,950.16
2023-03-05T09:30:28.496Z,950.17
2023-03-05T09:31:28.514Z,950.13
2023-03-05T09:32:28.537Z,950.16
2023-03-05T09:33:28.439Z,950.16
2023-03-05T09:34:28.420Z,950.12
2023-03-05T09:35:28.411Z,950.16
2023-03-05T09:36:28.380Z,950.16
2023-03-05T09:37:28.359Z,950.19
2023-03-05T09:38:28.341Z,950.15
2023-03-05T09:39:28.323Z,950.13
2023-03-05T09:40:28.304Z,950.11
2023-03-05T09:41:28.316Z,950.14
2023-03-05T09:42:28.269Z,950.1
2023-03-05T09:43:28.247Z,950.13
2023-03-05T09:44:28.228Z,950.17
2023-03-05T09:45:28.266Z,950.12
2023-03-05T09:46:28.195Z,950.12
2023-03-05T09:47:28.172Z,950.13
2023-03-05T09:48:28.197Z,950.13
2023-03-05T09:49:28.138Z,950.03
2023-03-05T09:50:28.118Z,950.04
2023-03-05T09:51:28.099Z,950.06
2023-03-05T09:52:28.081Z,950.07
2023-03-05T09:53:28.172Z,950.13
2023-03-05T09:54:28.047Z,950.04
2023-03-05T09:55:28.037Z,950.05
2023-03-05T09:56:28.018Z,950.06
2023-03-05T09:57:28.014Z,950.01
2023-03-05T09:58:27.970Z,950.06
2023-03-05T09:59:27.954Z,950.04
2023-03-05T10:00:27.934Z,950.03
2023-03-05T10:01:27.920Z,950
2023-03-05T10:02:27.898Z,950.03
2023-03-05T10:03:27.976Z,949.92
2023-03-05T10:04:27.920Z,949.93
2023-03-05T10:05:27.843Z,949.97
2023-03-05T10:06:27.824Z,949.98
2023-03-05T10:07:27.806Z,949.96
2023-03-05T10:08:27.787Z,949.94
2023-03-05T10:09:27.769Z,949.94
2023-03-05T10:10:27.755Z,949.99
2023-03-05T10:11:27.749Z,949.97
2023-03-05T10:12:27.725Z,949.95
2023-03-05T10:13:27.720Z,949.88
2023-03-05T10:14:27.683Z,949.89
2023-03-05T10:15:27.661Z,949.86
2023-03-05T10:16:27.712Z,949.84
2023-03-05T10:17:27.628Z,949.84
2023-03-05T10:18:27.607Z,949.86
2023-03-05T10:19:27.589Z,949.81
2023-03-05T10:20:27.569Z,949.77
2023-03-05T10:21:27.554Z,949.74
2023-03-05T10:22:27.543Z,949.8
2023-03-05T10:23:27.520Z,949.73
2023-03-05T10:24:27.499Z,949.69
2023-03-05T10:25:27.480Z,949.73
2023-03-05T10:26:27.461Z,949.68
2023-03-05T10:27:27.459Z,949.68
2023-03-05T10:28:27.426Z,949.59
2023-03-05T10:29:27.438Z,949.63
2023-03-05T10:30:27.394Z,949.59
2023-03-05T10:31:27.449Z,949.62
2023-03-05T10:32:27.403Z,949.63
2023-03-05T10:33:27.339Z,949.59
2023-03-05T10:34:27.324Z,949.54
2023-03-05T10:35:27.326Z,949.54
2023-03-05T10:36:27.285Z,949.53
2023-03-05T10:37:27.267Z,949.55
2023-03-05T10:38:27.248Z,949.54
2023-03-05T10:39:27.233Z,949.57
2023-03-05T10:40:27.214Z,949.54
2023-03-05T10:41:27.195Z,949.52
2023-03-05T10:42:28.188Z,949.49
2023-03-05T10:43:27.160Z,949.5
2023-03-05T10:44:27.144Z,949.49
2023-03-05T10:45:27.144Z,949.47
2023-03-05T10:46:27.105Z,949.49
2023-03-05T10:47:27.083Z,949.51
2023-03-05T10:48:27.068Z,949.47
2023-03-05T10:49:27.048Z,949.45
2023-03-05T10:50:27.041Z,949.43
2023-03-05T10:51:27.016Z,949.39
2023-03-05T10:52:26.997Z,949.37
2023-03-05T10:53:26.974Z,949.4
2023-03-05T10:54:26.958Z,949.38
2023-03-05T10:55:26.936Z,949.32
2023-03-05T10:56:26.923Z,949.35
2023-03-05T10:57:26.901Z,949.37
2023-03-05T10:58:26.883Z,949.39
2023-03-05T10:59:26.862Z,949.36
2023-03-05T11:00:26.849Z,949.38
2023-03-05T11:01:26.912Z,949.33
2023-03-05T11:02:26.844Z,949.36
2023-03-05T11:03:26.788Z,949.38
2023-03-05T11:04:26.769Z,949.32
2023-03-05T11:05:26.749Z,949.35
2023-03-05T11:06:26.730Z,949.33
2023-03-05T11:07:26.711Z,949.33
2023-03-05T11:08:26.704Z,949.32
2023-03-05T11:09:26.697Z,949.31
2023-03-05T11:10:26.659Z,949.29
2023-03-05T11:11:26.634Z,949.28
2023-03-05T11:12:26.616Z,949.3
2023-03-05T11:13:26.595Z,949.28
2023-03-05T11:14:26.580Z,949.26
2023-03-05T11:15:26.566Z,949.26
2023-03-05T11:16:26.599Z,949.27
2023-03-05T11:17:26.546Z,949.23
2023-03-05T11:18:26.505Z,949.18
2023-03-05T11:19:26.484Z,949.15
2023-03-05T11:20:26.467Z,949.19
2023-03-05T11:21:26.447Z,949.1
2023-03-05T11:22:26.431Z,949.13
2023-03-05T11:23:26.408Z,949.12
2023-03-05T11:24:26.404Z,949.12
2023-03-05T11:25:26.373Z,949.15
2023-03-05T11:26:26.356Z,949.14
2023-03-05T11:27:26.340Z,949.07
2023-03-05T11:28:32.802Z,949.09
2023-03-05T11:29:26.299Z,949.13
2023-03-05T11:30:26.293Z,949.09
2023-03-05T11:31:26.336Z,949.07
2023-03-05T11:32:26.308Z,949.06
2023-03-05T11:33:26.259Z,949.04
2023-03-05T11:34:26.213Z,949.06
2023-03-05T11:35:26.244Z,949.02
2023-03-05T11:36:26.174Z,949.01
2023-03-05T11:37:26.161Z,948.99
2023-03-05T11:38:26.139Z,949
2023-03-05T11:39:26.132Z,948.96
2023-03-05T11:40:26.105Z,948.96
2023-03-05T11:41:26.096Z,948.92
2023-03-05T11:42:26.072Z,948.89
2023-03-05T11:43:26.052Z,948.91
2023-03-05T11:44:26.039Z,948.87
2023-03-05T11:45:26.019Z,948.87
2023-03-05T11:46:26.049Z,948.84
2023-03-05T11:47:25.982Z,948.84
2023-03-05T11:48:25.963Z,948.77
2023-03-05T11:49:25.975Z,948.8
2023-03-05T11:50:25.939Z,948.78
2023-03-05T11:51:25.912Z,948.82
2023-03-05T11:52:25.895Z,948.76
2023-03-05T11:53:25.881Z,948.75
2023-03-05T11:54:25.858Z,948.78
2023-03-05T11:55:25.844Z,948.69
2023-03-05T11:56:25.824Z,948.7
2023-03-05T11:57:25.808Z,948.73
2023-03-05T11:58:25.829Z,948.69
2023-03-05T11:59:25.778Z,948.67
2023-03-05T12:00:25.759Z,948.63
2023-03-05T12:01:25.747Z,948.64
2023-03-05T12:02:25.784Z,948.61
2023-03-05T12:03:25.747Z,948.57
2023-03-05T12:04:25.707Z,948.59
2023-03-05T12:05:25.701Z,948.53
2023-03-05T12:06:25.653Z,948.52
2023-03-05T12:07:27.988Z,948.55
2023-03-05T12:08:25.628Z,948.48
2023-03-05T12:09:25.610Z,948.51
2023-03-05T12:10:25.584Z,948.49
2023-03-05T12:11:25.580Z,948.42
2023-03-05T12:12:25.552Z,948.43
2023-03-05T12:13:25.539Z,948.38
2023-03-05T12:14:25.519Z,948.36
2023-03-05T12:15:25.496Z,948.41
2023-03-05T12:16:25.502Z,948.39
2023-03-05T12:17:25.468Z,948.35
2023-03-05T12:18:25.444Z,948.29
2023-03-05T12:19:25.446Z,948.28
2023-03-05T12:20:25.498Z,948.28
2023-03-05T12:21:25.427Z,948.32
2023-03-05T12:22:25.428Z,948.32
2023-03-05T12:23:25.372Z,948.33
2023-03-05T12:24:27.847Z,948.19
2023-03-05T12:25:25.340Z,948.25
2023-03-05T12:26:25.308Z,948.22
2023-03-05T12:27:25.289Z,948.26
2023-03-05T12:28:25.294Z,948.25
2023-03-05T12:29:25.270Z,948.19
2023-03-05T12:30:25.238Z,948.19
2023-03-05T12:31:25.248Z,948.16
2023-03-05T12:32:25.240Z,948.14
2023-03-05T12:33:25.186Z,948.1
2023-03-05T12:34:25.183Z,948.08
2023-03-05T12:35:25.243Z,948.08
2023-03-05T12:36:25.135Z,948.17
2023-03-05T12:37:25.143Z,948.07
2023-03-05T12:38:26.949Z,948.09
2023-03-05T12:39:25.082Z,948.03
2023-03-05T12:40:25.066Z,948.04
2023-03-05T12:41:27.550Z,947.99
2023-03-05T12:42:25.032Z,948
2023-03-05T12:43:25.011Z,948
2023-03-05T12:44:25.003Z,948.04
2023-03-05T12:45:24.976Z,947.98
2023-03-05T12:46:25.033Z,948.05
2023-03-05T12:47:24.942Z,947.99